Time;durP1;ratioP1;P1;durP2;ratioP2;P2;SDS_P1;SDS_P2;PMS_P1;PMS_P2;Temp;Humidity;BMP_temperature;BMP_pressure;BME280_temperature;BME280_humidity;BME280_pressure;Samples;Min_cycle;Max_cycle;Signal;HPM_P1;HPM_P2
2022/10/17 00:00:43;;;;;;;14.07;3.70;;;12.80;99.90;;;;;;5136012;27;20546;-55
2022/10/17 00:03:09;;;;;;;11.52;3.08;;;12.80;99.90;;;;;;5135759;27;20031;-55
2022/10/17 00:05:41;;;;;;;7.80;2.67;;;12.70;99.90;;;;;;5135765;27;20074;-55
2022/10/17 00:08:09;;;;;;;14.43;4.50;;;12.70;99.90;;;;;;5135700;27;20039;-55
2022/10/17 00:10:34;;;;;;;14.13;3.38;;;12.70;99.90;;;;;;5135539;27;20061;-55
2022/10/17 00:13:00;;;;;;;18.80;3.38;;;12.70;99.90;;;;;;5135608;27;20035;-55
2022/10/17 00:15:26;;;;;;;11.65;3.22;;;12.70;99.90;;;;;;5135512;27;20071;-55
2022/10/17 00:17:51;;;;;;;8.35;2.70;;;12.70;99.90;;;;;;5135570;27;20385;-55
2022/10/17 00:20:17;;;;;;;11.55;2.90;;;12.70;99.90;;;;;;5135414;27;20031;-55
2022/10/17 00:22:43;;;;;;;10.27;2.55;;;12.70;99.90;;;;;;5135408;27;20493;-55
2022/10/17 00:25:09;;;;;;;9.60;2.92;;;12.80;99.90;;;;;;5135391;27;20114;-55
2022/10/17 00:27:36;;;;;;;14.25;3.00;;;12.80;99.90;;;;;;5135330;27;20431;-55
2022/10/17 00:30:03;;;;;;;16.00;4.13;;;12.80;99.90;;;;;;5135238;27;20377;-55
2022/10/17 00:32:28;;;;;;;16.92;4.63;;;12.80;99.90;;;;;;5135279;27;20035;-55
2022/10/17 00:34:54;;;;;;;16.45;4.45;;;12.90;99.90;;;;;;5134967;27;20053;-55
2022/10/17 00:37:19;;;;;;;13.23;3.95;;;12.90;99.90;;;;;;5134932;27;20039;-55
2022/10/17 00:39:45;;;;;;;15.35;4.90;;;12.80;99.90;;;;;;5134867;27;20031;-55
2022/10/17 00:42:14;;;;;;;13.23;4.35;;;12.80;99.90;;;;;;5135144;27;20118;-55
2022/10/17 00:44:40;;;;;;;12.73;4.55;;;12.80;99.90;;;;;;5135118;27;20384;-55
2022/10/17 00:47:12;;;;;;;11.48;4.35;;;12.80;99.90;;;;;;5134968;27;20031;-55
2022/10/17 00:49:39;;;;;;;15.18;4.68;;;12.80;99.90;;;;;;5135025;27;20042;-55
2022/10/17 00:52:12;;;;;;;9.95;3.65;;;12.80;99.90;;;;;;5134991;27;20038;-55
2022/10/17 00:54:43;;;;;;;15.48;5.57;;;12.80;99.90;;;;;;5135690;27;20031;-55
2022/10/17 00:57:08;;;;;;;11.15;4.05;;;12.90;99.90;;;;;;5134940;27;20040;-55
2022/10/17 00:59:36;;;;;;;12.95;4.63;;;12.90;99.90;;;;;;5134766;27;20038;-55
2022/10/17 01:02:12;;;;;;;10.57;4.32;;;12.90;99.90;;;;;;5134855;27;20042;-55
2022/10/17 01:04:42;;;;;;;12.50;4.30;;;12.90;99.90;;;;;;5134860;28;20043;-55
2022/10/17 01:07:08;;;;;;;17.13;4.38;;;13.00;99.90;;;;;;5134797;28;20084;-55
2022/10/17 01:09:34;;;;;;;14.02;4.70;;;12.90;99.90;;;;;;5134167;27;20038;-55
2022/10/17 01:12:15;;;;;;;9.82;3.72;;;13.00;99.90;;;;;;5134601;28;20122;-55
2022/10/17 01:14:59;;;;;;;13.55;4.38;;;13.00;99.90;;;;;;5134650;28;20031;-55
2022/10/17 01:17:32;;;;;;;10.45;3.83;;;13.00;99.90;;;;;;5134680;28;20035;-55
2022/10/17 01:20:18;;;;;;;9.30;3.90;;;13.00;99.90;;;;;;5134956;27;20039;-54
2022/10/17 01:23:13;;;;;;;12.38;4.63;;;13.00;99.90;;;;;;5134769;28;20039;-55
2022/10/17 01:25:59;;;;;;;8.75;3.30;;;13.00;99.90;;;;;;5115981;28;20370;-55
2022/10/17 01:29:06;;;;;;;10.07;3.30;;;13.00;99.90;;;;;;5134658;28;20035;-55
2022/10/17 01:32:00;;;;;;;12.55;3.38;;;13.10;99.90;;;;;;5120587;28;20390;-55
2022/10/17 01:34:49;;;;;;;12.93;3.88;;;13.20;99.90;;;;;;5031433;28;20058;-55
2022/10/17 01:37:21;;;;;;;7.82;3.30;;;13.10;99.90;;;;;;5031430;28;20128;-55
2022/10/17 01:39:54;;;;;;;13.20;3.50;;;13.10;99.90;;;;;;5031261;28;20454;-55
2022/10/17 01:42:44;;;;;;;14.25;4.47;;;13.20;99.90;;;;;;5031677;28;20041;-55
2022/10/17 01:45:26;;;;;;;37.53;4.38;;;13.30;99.90;;;;;;5031208;28;20053;-55
2022/10/17 01:47:55;;;;;;;9.07;3.70;;;13.30;99.90;;;;;;5031104;28;20116;-55
2022/10/17 01:50:53;;;;;;;5.70;3.13;;;13.30;99.90;;;;;;5014715;28;20083;-55
2022/10/17 01:53:33;;;;;;;9.68;3.70;;;13.30;99.90;;;;;;5014603;28;20081;-55
2022/10/17 01:56:00;;;;;;;;;;;13.30;99.90;;;;;;5031811;28;20042;-55
2022/10/17 01:58:35;;;;;;;10.02;3.67;;;13.30;99.90;;;;;;5031162;28;19921;-55
2022/10/17 02:01:03;;;;;;;11.35;3.65;;;13.30;99.90;;;;;;5031068;28;20038;-55
2022/10/17 02:03:31;;;;;;;8.68;4.22;;;13.30;99.90;;;;;;5031077;28;20092;-55
2022/10/17 02:05:56;;;;;;;8.77;4.03;;;13.30;99.90;;;;;;5031132;28;20091;-55
2022/10/17 02:08:58;;;;;;;10.35;3.80;;;13.30;99.90;;;;;;5031035;28;20139;-55
2022/10/17 02:11:25;;;;;;;13.23;4.18;;;13.20;99.90;;;;;;5024383;28;20489;-55
2022/10/17 02:14:28;;;;;;;7.05;4.05;;;13.30;99.90;;;;;;5070779;28;20231;-55
2022/10/17 02:17:14;;;;;;;12.32;3.65;;;13.30;99.90;;;;;;5030895;28;20553;-55
2022/10/17 02:19:53;;;;;;;10.90;4.07;;;13.20;99.90;;;;;;5030762;28;20049;-55
2022/10/17 02:22:43;;;;;;;5.75;3.22;;;13.20;99.90;;;;;;5033738;28;20115;-55
2022/10/17 02:25:18;;;;;;;7.78;3.80;;;13.20;99.90;;;;;;5034532;28;20171;-55
2022/10/17 02:27:49;;;;;;;9.88;4.38;;;13.20;99.90;;;;;;5034277;28;20599;-54
2022/10/17 02:30:28;;;;;;;7.47;4.50;;;13.20;99.90;;;;;;5034216;28;20077;-55
2022/10/17 02:33:01;;;;;;;8.20;4.10;;;13.20;99.90;;;;;;5034242;28;20041;-55
2022/10/17 02:35:31;;;;;;;6.95;4.18;;;13.10;99.90;;;;;;5033955;28;20137;-55
2022/10/17 02:37:58;;;;;;;11.18;4.40;;;13.10;99.90;;;;;;5034611;28;20476;-55
2022/10/17 02:40:25;;;;;;;11.23;4.18;;;13.10;99.90;;;;;;5034122;28;20057;-55
2022/10/17 02:42:53;;;;;;;7.30;4.53;;;13.10;99.90;;;;;;5034049;28;20068;-55
2022/10/17 02:45:19;;;;;;;9.63;4.45;;;13.20;99.90;;;;;;5033967;28;20046;-55
2022/10/17 02:47:54;;;;;;;8.20;4.05;;;13.10;99.90;;;;;;5043365;28;20480;-55
2022/10/17 02:50:26;;;;;;;7.55;4.53;;;13.20;99.90;;;;;;5053914;28;20106;-55
2022/10/17 02:53:02;;;;;;;8.02;4.82;;;13.20;99.90;;;;;;5067543;27;20438;-55
2022/10/17 02:55:32;;;;;;;8.82;5.03;;;13.10;99.90;;;;;;5137455;27;20039;-55
2022/10/17 02:58:06;;;;;;;8.27;5.18;;;13.10;99.90;;;;;;5137123;27;20036;-55
2022/10/17 03:00:32;;;;;;;10.73;4.97;;;13.20;99.90;;;;;;5137112;27;20039;-55
2022/10/17 03:02:58;;;;;;;9.43;4.88;;;13.20;99.90;;;;;;5137011;27;20117;-55
2022/10/17 03:05:27;;;;;;;10.70;5.10;;;13.10;99.90;;;;;;5136652;27;20231;-56
2022/10/17 03:07:53;;;;;;;11.60;4.68;;;13.10;99.90;;;;;;5136844;27;20039;-55
2022/10/17 03:10:19;;;;;;;6.68;5.15;;;13.20;99.90;;;;;;5137047;27;20490;-55
2022/10/17 03:12:45;;;;;;;7.03;5.40;;;13.20;99.90;;;;;;5136853;27;20039;-55
2022/10/17 03:15:11;;;;;;;10.45;5.80;;;13.20;99.90;;;;;;5136665;27;20050;-55
2022/10/17 03:17:37;;;;;;;8.05;5.97;;;13.20;99.90;;;;;;5136471;27;20077;-55
2022/10/17 03:20:05;;;;;;;13.27;6.05;;;13.20;99.90;;;;;;5137168;27;20043;-55
2022/10/17 03:22:31;;;;;;;9.30;5.75;;;13.10;99.90;;;;;;5136464;27;20039;-55
2022/10/17 03:24:57;;;;;;;10.98;6.05;;;13.10;99.90;;;;;;5136634;27;20124;-55
2022/10/17 03:27:23;;;;;;;10.60;6.00;;;13.10;99.90;;;;;;5136620;27;20389;-55
2022/10/17 03:29:48;;;;;;;11.48;5.88;;;13.10;99.90;;;;;;5136481;27;20043;-55
2022/10/17 03:32:14;;;;;;;12.38;6.50;;;13.10;99.90;;;;;;5136158;27;20077;-55
2022/10/17 03:34:39;;;;;;;7.82;6.28;;;13.10;99.90;;;;;;5135805;27;20065;-55
2022/10/17 03:37:05;;;;;;;11.32;6.57;;;13.00;99.90;;;;;;5136391;27;20378;-55
2022/10/17 03:39:31;;;;;;;9.80;6.40;;;13.00;99.90;;;;;;5136296;27;20042;-55
2022/10/17 03:41:56;;;;;;;14.35;6.15;;;13.00;99.90;;;;;;5136119;27;20050;-54
2022/10/17 03:44:22;;;;;;;9.88;6.45;;;13.20;99.90;;;;;;5136168;27;20031;-55
2022/10/17 03:46:48;;;;;;;9.48;6.45;;;13.10;99.90;;;;;;5135837;27;20039;-55
2022/10/17 03:49:13;;;;;;;9.93;6.97;;;13.20;99.90;;;;;;5136227;27;20122;-55
2022/10/17 03:51:39;;;;;;;10.65;6.63;;;13.10;99.90;;;;;;5136104;27;20039;-55
2022/10/17 03:54:04;;;;;;;10.48;7.38;;;13.10;99.90;;;;;;5136041;27;20046;-55
2022/10/17 03:56:30;;;;;;;9.45;6.65;;;13.00;99.90;;;;;;5136021;27;20388;-55
2022/10/17 03:58:56;;;;;;;8.43;7.13;;;13.10;99.90;;;;;;5135701;27;20039;-55
2022/10/17 04:01:22;;;;;;;8.32;6.95;;;13.00;99.90;;;;;;5135838;27;20039;-54
2022/10/17 04:03:53;;;;;;;9.45;7.78;;;12.90;99.90;;;;;;5135746;27;20035;-55
2022/10/17 04:06:19;;;;;;;9.20;7.78;;;13.00;99.90;;;;;;5135768;27;20039;-55
2022/10/17 04:08:45;;;;;;;13.07;7.97;;;13.10;99.90;;;;;;5135598;27;20050;-55
2022/10/17 04:11:15;;;;;;;11.43;7.88;;;12.90;99.90;;;;;;5135668;27;20046;-54
2022/10/17 04:13:40;;;;;;;10.73;7.93;;;12.90;99.90;;;;;;5135583;27;20067;-55
2022/10/17 04:16:09;;;;;;;11.55;7.68;;;13.10;99.90;;;;;;5117081;27;20458;-55
2022/10/17 04:18:35;;;;;;;11.75;8.00;;;12.90;99.90;;;;;;5135454;27;20377;-55
2022/10/17 04:21:02;;;;;;;12.82;7.82;;;13.00;99.90;;;;;;5135293;27;20118;-55
2022/10/17 04:23:28;;;;;;;8.98;7.85;;;13.10;99.90;;;;;;5135329;27;20042;-55
2022/10/17 04:25:58;;;;;;;11.73;9.25;;;13.10;99.90;;;;;;5135235;27;20039;-55
2022/10/17 04:28:27;;;;;;;10.85;8.23;;;13.10;99.90;;;;;;5135323;27;20047;-55
2022/10/17 04:31:00;;;;;;;8.98;8.07;;;13.10;99.90;;;;;;5135115;27;20043;-55
2022/10/17 04:33:26;;;;;;;15.70;8.68;;;13.00;99.90;;;;;;5135273;27;20039;-55
2022/10/17 04:36:02;;;;;;;11.48;7.78;;;13.10;99.90;;;;;;5134880;27;20077;-55
2022/10/17 04:38:29;;;;;;;11.73;8.15;;;13.10;99.90;;;;;;5135110;27;20070;-55
2022/10/17 04:41:01;;;;;;;15.32;8.68;;;13.00;99.90;;;;;;5135175;27;20035;-55
2022/10/17 04:43:31;;;;;;;11.70;8.93;;;13.20;99.90;;;;;;5113923;28;20422;-55
2022/10/17 04:45:58;;;;;;;15.60;9.20;;;13.30;99.90;;;;;;5114606;28;20040;-55
2022/10/17 04:48:24;;;;;;;14.13;9.68;;;13.30;99.90;;;;;;5114546;28;20035;-55
2022/10/17 04:51:00;;;;;;;10.90;8.98;;;13.10;99.90;;;;;;5114330;28;20059;-55
2022/10/17 04:53:26;;;;;;;14.90;9.70;;;13.10;99.90;;;;;;5114368;28;20482;-55
2022/10/17 04:55:52;;;;;;;14.45;10.45;;;13.30;99.90;;;;;;5114102;28;20490;-55
2022/10/17 04:58:18;;;;;;;14.65;10.20;;;13.40;99.90;;;;;;5114497;28;20049;-55
2022/10/17 05:00:44;;;;;;;11.10;10.00;;;13.30;99.90;;;;;;5112591;28;20504;-55
2022/10/17 05:03:10;;;;;;;18.05;10.07;;;13.40;99.90;;;;;;5112097;28;20401;-55
2022/10/17 05:05:40;;;;;;;19.45;11.57;;;13.30;99.90;;;;;;5113770;28;20040;-54
2022/10/17 05:08:07;;;;;;;16.05;11.52;;;13.50;99.90;;;;;;5114164;28;20036;-55
2022/10/17 05:10:43;;;;;;;14.65;11.52;;;13.70;99.90;;;;;;5114160;28;20478;-55
2022/10/17 05:13:09;;;;;;;17.17;10.63;;;13.40;99.90;;;;;;5114211;28;20040;-55
2022/10/17 05:15:36;;;;;;;14.38;11.02;;;13.40;99.90;;;;;;5112209;28;20058;-55
2022/10/17 05:18:03;;;;;;;17.05;11.63;;;13.70;99.90;;;;;;5124160;28;20125;-55
2022/10/17 05:20:28;;;;;;;14.70;11.27;;;13.60;99.90;;;;;;5134776;28;20039;-55
2022/10/17 05:22:54;;;;;;;13.70;11.63;;;13.50;99.90;;;;;;5134611;27;20035;-55
2022/10/17 05:25:20;;;;;;;15.85;11.20;;;13.80;99.90;;;;;;5134620;28;20043;-55
2022/10/17 05:27:46;;;;;;;16.48;11.95;;;13.80;99.90;;;;;;5134646;27;20158;-55
2022/10/17 05:30:12;;;;;;;13.50;11.45;;;13.50;99.90;;;;;;5133204;28;20035;-55
2022/10/17 05:32:37;;;;;;;14.05;12.07;;;13.90;99.90;;;;;;5132952;28;20046;-55
2022/10/17 05:35:04;;;;;;;17.63;11.95;;;13.60;99.90;;;;;;5132596;28;20051;-55
2022/10/17 05:37:30;;;;;;;23.27;12.30;;;13.90;99.90;;;;;;5133417;28;20035;-54
2022/10/17 05:39:56;;;;;;;19.42;12.20;;;13.70;99.90;;;;;;5134478;28;20080;-55
2022/10/17 05:42:22;;;;;;;14.20;11.95;;;13.90;99.90;;;;;;5134485;28;20031;-55
2022/10/17 05:44:48;;;;;;;19.20;12.38;;;13.90;99.90;;;;;;5134168;28;20485;-54
2022/10/17 05:47:14;;;;;;;14.20;11.85;;;13.80;99.90;;;;;;5134433;28;20042;-55
2022/10/17 05:49:39;;;;;;;16.63;12.27;;;13.80;99.90;;;;;;5134380;28;20039;-54
2022/10/17 05:52:05;;;;;;;20.02;13.10;;;13.90;99.90;;;;;;5134345;28;20039;-55
2022/10/17 05:54:31;;;;;;;22.23;13.13;;;13.80;99.90;;;;;;5134623;27;20039;-55
2022/10/17 05:56:57;;;;;;;19.02;12.52;;;14.00;99.90;;;;;;5138264;27;20065;-54
2022/10/17 05:59:24;;;;;;;16.92;12.73;;;14.20;99.90;;;;;;5137614;27;20087;-54
2022/10/17 06:01:50;;;;;;;15.70;12.77;;;13.90;99.90;;;;;;5136451;27;20042;-55
2022/10/17 06:04:16;;;;;;;18.02;13.00;;;14.10;99.90;;;;;;5136209;27;20608;-55
2022/10/17 06:06:41;;;;;;;15.73;12.50;;;14.10;99.90;;;;;;5136288;27;20057;-55
2022/10/17 06:09:07;;;;;;;14.65;12.30;;;14.10;99.90;;;;;;5136950;27;20088;-55
2022/10/17 06:11:33;;;;;;;19.25;13.40;;;14.00;99.90;;;;;;5138068;27;20370;-55
2022/10/17 06:14:00;;;;;;;17.23;13.43;;;14.10;99.90;;;;;;5137868;27;20035;-55
2022/10/17 06:16:25;;;;;;;16.30;13.25;;;13.90;99.90;;;;;;5137902;27;20122;-54
2022/10/17 06:18:51;;;;;;;15.23;12.57;;;14.10;99.90;;;;;;5137832;27;20067;-55
2022/10/17 06:21:22;;;;;;;19.17;12.98;;;14.10;99.90;;;;;;5137545;27;20042;-54
2022/10/17 06:23:49;;;;;;;18.35;13.10;;;13.90;99.90;;;;;;5137441;27;20036;-55
2022/10/17 06:26:14;;;;;;;18.45;13.90;;;14.00;99.90;;;;;;5137512;27;20088;-55
2022/10/17 06:28:40;;;;;;;57.30;17.88;;;14.10;99.90;;;;;;5137730;27;20047;-55
2022/10/17 06:31:08;;;;;;;20.45;14.70;;;14.20;99.90;;;;;;5135512;27;20043;-55
2022/10/17 06:33:34;;;;;;;18.58;13.30;;;14.10;99.90;;;;;;5119017;27;20093;-55
2022/10/17 06:36:01;;;;;;;27.80;13.43;;;14.10;99.90;;;;;;5116061;27;20142;-55
2022/10/17 06:38:26;;;;;;;17.23;13.65;;;14.40;99.90;;;;;;5137521;27;20039;-55
2022/10/17 06:40:56;;;;;;;16.83;13.77;;;14.20;99.90;;;;;;5136569;27;20134;-55
2022/10/17 06:43:22;;;;;;;17.08;12.57;;;14.30;99.90;;;;;;5136312;27;20100;-55
2022/10/17 06:45:47;;;;;;;18.60;13.73;;;14.20;99.90;;;;;;5137186;27;20039;-55
2022/10/17 06:48:14;;;;;;;20.40;13.10;;;14.30;99.90;;;;;;5137205;27;20123;-55
2022/10/17 06:50:39;;;;;;;17.52;14.13;;;14.20;99.90;;;;;;5137030;27;20541;-55
2022/10/17 06:53:05;;;;;;;17.95;13.38;;;14.40;99.90;;;;;;5137546;27;20043;-55
2022/10/17 06:55:31;;;;;;;18.70;13.68;;;14.30;99.90;;;;;;5137084;27;20035;-55
2022/10/17 06:57:57;;;;;;;21.33;12.48;;;14.30;99.90;;;;;;5136850;27;20088;-54
2022/10/17 07:00:23;;;;;;;14.35;12.35;;;14.30;99.90;;;;;;5136207;27;20031;-55
2022/10/17 07:02:48;;;;;;;14.40;12.73;;;14.30;99.90;;;;;;5135375;27;20434;-55
2022/10/17 07:05:14;;;;;;;16.92;13.23;;;14.30;99.90;;;;;;5113345;27;20036;-55
2022/10/17 07:07:40;;;;;;;18.10;14.40;;;14.40;99.90;;;;;;5115453;28;20366;-55
2022/10/17 07:10:09;;;;;;;19.73;13.25;;;14.50;99.90;;;;;;5116623;28;20036;-54
2022/10/17 07:12:35;;;;;;;20.58;13.82;;;14.30;99.90;;;;;;5115962;28;20504;-55
2022/10/17 07:15:03;;;;;;;19.67;13.15;;;14.40;99.90;;;;;;5116108;28;20377;-55
2022/10/17 07:17:29;;;;;;;19.77;12.85;;;14.70;99.90;;;;;;5116076;28;20036;-55
2022/10/17 07:19:54;;;;;;;17.23;13.43;;;14.70;99.90;;;;;;5116383;28;20042;-54
2022/10/17 07:22:20;;;;;;;14.23;12.75;;;14.70;99.90;;;;;;5116162;28;20040;-55
2022/10/17 07:24:46;;;;;;;20.50;14.45;;;14.70;99.90;;;;;;5116062;28;20112;-55
2022/10/17 07:27:13;;;;;;;16.80;12.55;;;14.70;99.90;;;;;;5115832;28;20028;-55
2022/10/17 07:29:38;;;;;;;16.08;13.60;;;14.90;99.90;;;;;;5115552;28;20089;-55
2022/10/17 07:32:07;;;;;;;14.13;11.75;;;14.80;99.90;;;;;;5114442;27;20035;-55
2022/10/17 07:34:33;;;;;;;14.98;11.52;;;14.90;99.90;;;;;;5114148;28;20052;-54
2022/10/17 07:36:59;;;;;;;14.82;12.20;;;15.20;99.90;;;;;;5114197;28;20046;-55
2022/10/17 07:39:25;;;;;;;14.48;12.05;;;15.10;99.90;;;;;;5115704;28;20035;-55
2022/10/17 07:41:50;;;;;;;14.95;11.50;;;15.20;99.90;;;;;;5115718;28;20039;-54
2022/10/17 07:44:16;;;;;;;15.65;10.75;;;15.50;99.90;;;;;;5115569;28;20077;-55
2022/10/17 07:46:42;;;;;;;14.80;11.00;;;15.40;99.90;;;;;;5115315;28;20123;-55
2022/10/17 07:49:07;;;;;;;17.52;11.30;;;15.50;99.90;;;;;;5115576;28;20044;-55
2022/10/17 07:51:33;;;;;;;13.32;10.65;;;15.60;99.90;;;;;;5115461;28;20072;-55
2022/10/17 07:53:59;;;;;;;15.85;11.38;;;15.50;99.90;;;;;;5115440;28;20394;-55
2022/10/17 07:56:24;;;;;;;16.17;10.90;;;15.70;99.90;;;;;;5115257;28;20062;-55
2022/10/17 07:58:51;;;;;;;14.48;10.70;;;15.50;99.90;;;;;;5115250;28;20039;-54
2022/10/17 08:01:18;;;;;;;12.23;9.75;;;15.90;99.90;;;;;;5113737;28;20024;-55
2022/10/17 08:03:45;;;;;;;14.68;10.60;;;15.60;99.90;;;;;;5114021;27;20036;-55
2022/10/17 08:06:11;;;;;;;11.70;9.40;;;16.00;99.90;;;;;;5113794;27;20504;-55
2022/10/17 08:08:37;;;;;;;12.88;9.00;;;16.40;99.90;;;;;;5115123;28;20432;-54
2022/10/17 08:11:06;;;;;;;14.32;9.30;;;16.80;99.90;;;;;;5114934;28;20043;-55
2022/10/17 08:13:32;;;;;;;13.60;9.07;;;17.00;99.90;;;;;;5115002;28;20123;-55
2022/10/17 08:15:59;;;;;;;9.68;8.40;;;17.10;99.90;;;;;;5115013;28;20114;-55
2022/10/17 08:18:25;;;;;;;16.25;9.45;;;17.00;99.90;;;;;;5114058;28;20035;-55
2022/10/17 08:20:51;;;;;;;11.50;7.93;;;17.10;99.90;;;;;;5114880;28;20043;-55
2022/10/17 08:23:16;;;;;;;13.40;9.30;;;17.10;99.90;;;;;;5114893;28;20040;-55
2022/10/17 08:25:42;;;;;;;10.85;8.20;;;17.10;99.90;;;;;;5114678;28;20070;-55
2022/10/17 08:28:07;;;;;;;10.95;7.82;;;17.10;99.90;;;;;;5114753;28;20039;-55
2022/10/17 08:30:33;;;;;;;11.52;8.25;;;17.10;99.90;;;;;;5113921;28;20470;-55
2022/10/17 08:32:59;;;;;;;11.00;8.52;;;17.00;99.90;;;;;;5117045;27;20381;-55
2022/10/17 08:35:24;;;;;;;10.85;7.93;;;17.00;99.90;;;;;;5134101;27;20078;-55
2022/10/17 08:37:50;;;;;;;14.50;8.90;;;16.90;99.90;;;;;;5135041;27;20031;-55
2022/10/17 08:40:24;;;;;;;10.90;8.40;;;17.00;99.90;;;;;;5135120;27;20027;-55
2022/10/17 08:43:30;;;;;;;9.73;8.00;;;17.00;99.90;;;;;;5135086;27;20035;-55
2022/10/17 08:46:05;;;;;;;15.93;7.75;;;17.20;99.90;;;;;;5135090;27;20039;-55
2022/10/17 08:48:38;;;;;;;7.88;6.95;;;17.10;99.90;;;;;;5135183;27;20043;-55
2022/10/17 08:51:23;;;;;;;9.48;7.50;;;17.00;99.90;;;;;;5134796;27;20121;-55
2022/10/17 08:53:56;;;;;;;10.15;6.75;;;17.10;99.90;;;;;;5134937;27;20035;-55
2022/10/17 08:56:33;;;;;;;17.95;7.63;;;17.20;99.90;;;;;;5134591;27;20114;-55
2022/10/17 08:58:59;;;;;;;11.68;7.57;;;17.20;99.90;;;;;;5134599;27;20032;-55
2022/10/17 09:01:44;;;;;;;13.20;7.13;;;17.40;99.90;;;;;;5134136;27;20031;-54
2022/10/17 09:04:19;;;;;;;8.77;7.72;;;17.20;99.90;;;;;;5135037;27;20041;-55
2022/10/17 09:07:12;;;;;;;10.77;6.97;;;17.30;99.90;;;;;;5134767;27;20042;-55
2022/10/17 09:09:52;;;;;;;10.23;7.43;;;17.20;99.90;;;;;;5134661;27;20035;-55
2022/10/17 09:12:27;;;;;;;11.25;7.53;;;17.20;99.90;;;;;;5134677;28;20110;-55
2022/10/17 09:14:59;;;;;;;12.63;7.13;;;17.20;99.90;;;;;;5134629;27;20039;-55
2022/10/17 09:17:30;;;;;;;9.40;6.68;;;17.40;99.90;;;;;;5134599;27;20118;-54
2022/10/17 09:20:01;;;;;;;11.73;6.82;;;17.20;99.90;;;;;;5134526;27;20414;-55
2022/10/17 09:22:32;;;;;;;11.25;7.35;;;17.20;99.90;;;;;;5134067;28;20118;-54
2022/10/17 09:25:08;;;;;;;11.07;7.35;;;17.30;99.90;;;;;;5134327;28;20465;-55
2022/10/17 09:27:51;;;;;;;9.68;6.88;;;17.30;99.90;;;;;;5134329;28;20037;-55
2022/10/17 09:30:35;;;;;;;14.52;7.93;;;17.40;99.90;;;;;;5136018;27;20559;-55
2022/10/17 09:33:12;;;;;;;11.25;7.03;;;17.50;99.90;;;;;;5119917;27;20035;-55
2022/10/17 09:35:40;;;;;;;10.25;7.80;;;17.40;99.90;;;;;;5138206;27;20126;-55
2022/10/17 09:38:18;;;;;;;10.43;7.75;;;17.30;99.90;;;;;;5138554;27;20082;-55
2022/10/17 09:40:50;;;;;;;10.90;7.22;;;17.40;99.90;;;;;;5138668;27;20035;-55
2022/10/17 09:43:16;;;;;;;10.45;7.68;;;17.30;99.90;;;;;;5138408;27;20041;-54
2022/10/17 09:46:09;;;;;;;17.35;7.93;;;17.30;99.90;;;;;;5138585;27;20115;-55
2022/10/17 09:48:40;;;;;;;11.90;7.85;;;17.30;99.90;;;;;;5034858;28;20141;-55
2022/10/17 09:51:07;;;;;;;11.07;7.97;;;17.30;99.90;;;;;;5035051;28;20045;-55
2022/10/17 09:53:37;;;;;;;11.35;8.07;;;17.40;99.90;;;;;;5034907;28;20159;-55
2022/10/17 09:56:10;;;;;;;13.27;8.68;;;17.30;99.90;;;;;;5034588;28;20045;-55
2022/10/17 09:58:53;;;;;;;12.15;8.15;;;17.40;99.90;;;;;;5034863;28;20146;-55
2022/10/17 10:01:28;;;;;;;12.57;8.73;;;17.10;99.90;;;;;;5035167;28;20045;-55
2022/10/17 10:04:14;;;;;;;12.20;9.10;;;17.00;99.90;;;;;;5034838;28;20046;-55
2022/10/17 10:06:59;;;;;;;15.38;8.52;;;17.20;99.90;;;;;;5034824;28;20053;-55
2022/10/17 10:09:27;;;;;;;12.10;10.02;;;17.20;99.90;;;;;;5034688;28;20503;-56
2022/10/17 10:11:58;;;;;;;12.98;9.95;;;16.80;99.90;;;;;;5034411;28;20053;-55
2022/10/17 10:14:38;;;;;;;19.23;10.10;;;16.80;99.90;;;;;;5034675;28;20041;-54
2022/10/17 10:17:24;;;;;;;17.27;10.88;;;17.10;99.90;;;;;;5034840;28;20487;-55
2022/10/17 10:19:51;;;;;;;17.60;10.63;;;16.70;99.90;;;;;;5034510;28;20408;-54
2022/10/17 10:22:19;;;;;;;13.43;10.65;;;16.80;99.90;;;;;;5034484;28;20045;-55
2022/10/17 10:24:46;;;;;;;15.60;10.53;;;17.00;99.90;;;;;;5051133;27;20492;-55
2022/10/17 10:27:14;;;;;;;13.75;10.77;;;17.00;99.90;;;;;;5138209;27;20039;-55
2022/10/17 10:29:48;;;;;;;16.48;10.77;;;16.60;99.90;;;;;;5137776;27;20126;-55
2022/10/17 10:32:24;;;;;;;16.92;11.82;;;17.00;99.90;;;;;;5137627;27;20043;-55
2022/10/17 10:34:56;;;;;;;17.33;11.57;;;16.70;99.90;;;;;;5137515;27;20112;-54
2022/10/17 10:37:26;;;;;;;15.88;10.75;;;17.00;99.90;;;;;;5137471;27;20039;-55
2022/10/17 10:39:58;;;;;;;16.08;10.65;;;16.60;99.90;;;;;;5137187;27;20035;-55
2022/10/17 10:42:31;;;;;;;18.98;10.77;;;16.50;99.90;;;;;;5136232;27;20039;-55
2022/10/17 10:45:11;;;;;;;14.10;9.95;;;16.80;99.90;;;;;;5132386;27;20442;-55
2022/10/17 10:47:36;;;;;;;18.23;12.05;;;16.70;99.90;;;;;;5116353;28;20142;-55
2022/10/17 10:50:19;;;;;;;15.30;11.63;;;16.80;99.90;;;;;;5116479;28;20043;-54
2022/10/17 10:52:59;;;;;;;15.52;11.88;;;16.60;99.90;;;;;;5116667;28;20035;-55
2022/10/17 10:55:31;;;;;;;14.38;11.43;;;16.60;99.90;;;;;;5116362;28;20040;-55
2022/10/17 10:58:02;;;;;;;19.75;12.00;;;16.50;99.90;;;;;;5116395;28;20042;-55
2022/10/17 11:00:31;;;;;;;17.17;11.38;;;16.70;99.90;;;;;;5115399;28;20114;-55
2022/10/17 11:03:05;;;;;;;19.55;11.80;;;16.50;99.90;;;;;;5116035;28;20046;-55
2022/10/17 11:05:47;;;;;;;17.13;10.68;;;16.80;99.90;;;;;;5116185;28;20481;-55
2022/10/17 11:08:29;;;;;;;17.77;11.25;;;16.70;99.90;;;;;;5095294;27;20047;-55
2022/10/17 11:11:25;;;;;;;14.65;9.98;;;16.70;99.90;;;;;;5136858;27;20438;-55
2022/10/17 11:14:02;;;;;;;13.68;9.80;;;16.60;99.90;;;;;;5136786;27;20085;-55
2022/10/17 11:16:31;;;;;;;24.38;11.65;;;17.00;99.90;;;;;;5117657;27;20047;-55
2022/10/17 11:19:24;;;;;;;17.88;11.13;;;16.60;99.90;;;;;;5136722;27;20099;-55
2022/10/17 11:22:17;;;;;;;24.75;11.90;;;16.70;99.90;;;;;;5136356;27;20051;-55
2022/10/17 11:24:58;;;;;;;18.70;11.90;;;16.60;99.90;;;;;;5136545;27;20035;-54
2022/10/17 11:27:28;;;;;;;13.60;10.85;;;17.10;99.90;;;;;;5135643;27;20035;-55
2022/10/17 11:29:54;;;;;;;12.98;10.48;;;16.70;99.90;;;;;;5135844;27;20035;-55
2022/10/17 11:32:42;;;;;;;14.65;10.95;;;17.00;99.90;;;;;;5134449;27;20521;-55
2022/10/17 11:35:14;;;;;;;17.35;11.52;;;17.00;99.90;;;;;;5134794;27;20095;-55
2022/10/17 11:37:46;;;;;;;16.05;11.43;;;16.80;99.90;;;;;;5136294;27;20091;-55
2022/10/17 11:40:17;;;;;;;16.83;10.90;;;17.00;99.90;;;;;;5136187;27;20035;-55
2022/10/17 11:42:58;;;;;;;13.82;10.82;;;16.70;99.90;;;;;;5136473;27;20039;-54
2022/10/17 11:45:28;;;;;;;15.57;10.80;;;16.60;99.90;;;;;;5136145;27;20050;-55
2022/10/17 11:48:01;;;;;;;13.82;10.80;;;16.70;99.90;;;;;;5136112;27;20043;-55
2022/10/17 11:50:32;;;;;;;13.00;8.27;;;16.90;99.90;;;;;;5135924;27;20118;-55
2022/10/17 11:53:09;;;;;;;13.50;9.82;;;16.70;99.90;;;;;;5135691;27;20046;-55
2022/10/17 11:55:39;;;;;;;16.92;9.13;;;16.90;99.90;;;;;;5135858;27;20134;-54
2022/10/17 11:58:35;;;;;;;12.02;8.85;;;16.50;99.90;;;;;;5135658;27;20035;-55
2022/10/17 12:01:07;;;;;;;11.27;9.18;;;16.80;99.90;;;;;;5117217;27;20077;-55
2022/10/17 12:03:32;;;;;;;11.63;7.10;;;16.50;99.90;;;;;;5136164;27;20074;-55
2022/10/17 12:06:10;;;;;;;11.10;7.13;;;16.50;99.90;;;;;;5117416;27;20082;-54
2022/10/17 12:08:47;;;;;;;9.80;7.22;;;16.50;99.90;;;;;;5135745;27;20074;-54
2022/10/17 12:11:24;;;;;;;9.43;7.60;;;16.40;99.90;;;;;;5135676;27;20042;-54
2022/10/17 12:13:53;;;;;;;9.82;6.80;;;16.70;99.90;;;;;;5135710;27;20121;-55
2022/10/17 12:16:19;;;;;;;9.32;6.35;;;16.70;99.90;;;;;;5135586;27;20046;-54
2022/10/17 12:18:50;;;;;;;9.63;6.95;;;16.40;99.90;;;;;;5134948;27;20047;-55
2022/10/17 12:21:16;;;;;;;10.98;7.15;;;16.70;99.90;;;;;;5135498;27;20474;-54
2022/10/17 12:23:51;;;;;;;18.70;8.50;;;16.50;99.90;;;;;;5135381;27;20035;-54
2022/10/17 12:26:26;;;;;;;10.15;7.22;;;16.60;99.90;;;;;;5135278;27;20477;-55
2022/10/17 12:28:52;;;;;;;12.48;7.72;;;16.70;99.90;;;;;;5135313;27;20035;-54
2022/10/17 12:31:18;;;;;;;11.43;7.35;;;17.10;99.90;;;;;;5123742;27;20030;-54
2022/10/17 12:33:49;;;;;;;9.80;8.32;;;16.70;99.90;;;;;;5113874;28;20122;-54
2022/10/17 12:36:19;;;;;;;12.30;7.80;;;16.70;99.90;;;;;;5113677;28;20044;-55
2022/10/17 12:39:10;;;;;;;13.48;8.20;;;17.20;99.90;;;;;;5114714;28;20039;-55
2022/10/17 12:41:38;;;;;;;14.18;7.13;;;17.20;99.90;;;;;;5012109;28;20053;-55
2022/10/17 12:44:13;;;;;;;9.45;6.53;;;17.10;99.90;;;;;;5012052;28;20049;-55
2022/10/17 12:46:46;;;;;;;7.88;5.55;;;16.90;99.90;;;;;;5012102;28;20510;-55
2022/10/17 12:49:42;;;;;;;7.90;6.45;;;17.00;99.90;;;;;;5011949;28;20436;-55
2022/10/17 12:52:18;;;;;;;6.18;5.43;;;17.10;99.90;;;;;;5012007;28;20053;-55
2022/10/17 12:54:58;;;;;;;6.10;5.00;;;16.90;99.90;;;;;;5012004;28;20069;-55